Time;durP1;ratioP1;P1;durP2;ratioP2;P2;SDS_P1;SDS_P2;PMS_P1;PMS_P2;Temp;Humidity;BMP_temperature;BMP_pressure;BME280_temperature;BME280_humidity;BME280_pressure;Samples;Min_cycle;Max_cycle;Signal;HPM_P1;HPM_P2
2023/07/11 00:00:15;;;;;;;15.25;2.35;;;42.00;31.50;;;;;;5077766;28;20024;-64
2023/07/11 00:02:43;;;;;;;18.25;2.63;;;42.10;32.40;;;;;;5073265;28;20314;-64
2023/07/11 00:05:11;;;;;;;6.10;2.35;;;42.00;31.90;;;;;;5077132;28;20044;-65
2023/07/11 00:07:38;;;;;;;8.40;2.40;;;41.90;31.80;;;;;;5076097;28;20378;-63
2023/07/11 00:10:05;;;;;;;12.05;2.30;;;42.00;32.40;;;;;;5049874;28;20505;-63
2023/07/11 00:12:31;;;;;;;24.92;3.05;;;42.00;32.30;;;;;;5076027;28;20044;-63
2023/07/11 00:14:58;;;;;;;13.27;2.40;;;42.00;32.20;;;;;;5050023;28;20379;-62
2023/07/11 00:17:24;;;;;;;11.82;2.20;;;42.00;32.50;;;;;;5068657;28;20630;-64
2023/07/11 00:19:57;;;;;;;22.70;2.83;;;41.90;32.70;;;;;;5069074;28;20051;-63
2023/07/11 00:22:26;;;;;;;18.33;3.45;;;41.70;32.30;;;;;;5070711;28;20025;-63
2023/07/11 00:24:53;;;;;;;16.75;2.92;;;41.60;32.70;;;;;;5072014;28;20015;-63
2023/07/11 00:27:21;;;;;;;15.30;2.50;;;41.40;33.10;;;;;;5073029;28;20009;-62
2023/07/11 00:29:47;;;;;;;15.52;2.40;;;41.50;33.00;;;;;;5074862;28;20044;-62
2023/07/11 00:32:14;;;;;;;16.05;3.22;;;41.40;33.20;;;;;;5078898;28;20017;-64
2023/07/11 00:34:40;;;;;;;16.88;2.72;;;41.30;33.20;;;;;;5047581;28;20021;-63
2023/07/11 00:37:07;;;;;;;16.73;2.67;;;41.20;33.40;;;;;;5072043;28;20021;-63
2023/07/11 00:39:35;;;;;;;22.17;3.03;;;41.20;33.60;;;;;;5077954;28;20100;-64
2023/07/11 00:42:02;;;;;;;22.08;3.15;;;41.20;33.70;;;;;;5070879;28;20522;-64
2023/07/11 00:44:47;;;;;;;11.45;2.78;;;41.10;34.00;;;;;;5078420;28;20072;-63
2023/07/11 00:47:14;;;;;;;21.00;3.20;;;41.00;34.30;;;;;;5074933;28;20013;-63
2023/07/11 00:49:41;;;;;;;21.02;2.63;;;40.90;34.50;;;;;;5075211;28;20032;-63
2023/07/11 00:52:08;;;;;;;31.70;3.28;;;40.90;34.60;;;;;;5079530;28;20028;-64
2023/07/11 00:54:36;;;;;;;13.90;2.50;;;40.80;35.30;;;;;;5080866;28;20107;-63
2023/07/11 00:57:07;;;;;;;15.38;3.03;;;40.70;35.60;;;;;;5071637;28;20016;-65
2023/07/11 00:59:33;;;;;;;16.70;3.63;;;40.60;36.20;;;;;;5072008;28;20017;-64
2023/07/11 01:02:05;;;;;;;22.38;3.42;;;40.60;36.50;;;;;;5070273;28;20067;-64
2023/07/11 01:04:32;;;;;;;24.98;3.25;;;40.50;36.60;;;;;;5069249;28;20152;-62
2023/07/11 01:06:58;;;;;;;24.90;3.35;;;40.40;36.80;;;;;;5075434;28;20497;-64
2023/07/11 01:09:26;;;;;;;19.88;3.60;;;40.30;37.00;;;;;;5076755;28;20556;-63
2023/07/11 01:12:01;;;;;;;25.75;3.10;;;40.20;37.20;;;;;;5073343;28;20090;-64
2023/07/11 01:14:28;;;;;;;;;;;40.10;37.40;;;;;;5073115;28;20012;-63
2023/07/11 01:16:54;;;;;;;;;;;40.10;37.50;;;;;;5076320;28;19945;-62
2023/07/11 01:19:20;;;;;;;;;;;40.00;37.80;;;;;;5076996;28;19904;-65
2023/07/11 01:21:49;;;;;;;28.23;3.40;;;40.00;37.90;;;;;;5077649;28;19969;-63
2023/07/11 01:24:16;;;;;;;26.35;3.55;;;40.00;38.50;;;;;;5075071;28;20021;-65
2023/07/11 01:26:42;;;;;;;19.45;3.78;;;39.90;38.80;;;;;;5077929;28;20024;-64
2023/07/11 01:29:09;;;;;;;23.02;3.78;;;39.80;38.30;;;;;;5073978;28;20021;-63
2023/07/11 01:31:36;;;;;;;17.25;3.00;;;39.70;38.50;;;;;;5071566;28;20023;-67
2023/07/11 01:34:05;;;;;;;17.55;2.90;;;39.50;38.40;;;;;;5075117;28;20020;-65
2023/07/11 01:36:32;;;;;;;30.48;3.42;;;39.50;38.70;;;;;;5079361;28;20020;-64
2023/07/11 01:38:59;;;;;;;29.35;4.05;;;39.50;39.20;;;;;;5069704;28;20040;-65
2023/07/11 01:41:26;;;;;;;21.73;3.10;;;39.30;39.20;;;;;;5071113;28;20021;-64
2023/07/11 01:43:54;;;;;;;27.77;3.35;;;39.20;39.50;;;;;;5075726;28;20042;-66
2023/07/11 01:46:20;;;;;;;29.48;4.53;;;39.10;39.80;;;;;;5075147;28;20108;-63
2023/07/11 01:48:46;;;;;;;28.38;3.75;;;39.10;39.70;;;;;;5078657;28;20017;-64
2023/07/11 01:51:13;;;;;;;26.27;3.50;;;39.10;39.70;;;;;;5078862;28;20024;-63
2023/07/11 01:53:39;;;;;;;18.60;3.33;;;39.10;39.30;;;;;;5072447;28;20008;-63
2023/07/11 01:56:06;;;;;;;19.25;3.33;;;39.00;39.20;;;;;;5080011;28;20066;-61
2023/07/11 01:58:33;;;;;;;14.55;2.95;;;38.90;39.50;;;;;;5073783;28;20016;-66
2023/07/11 02:01:00;;;;;;;17.42;3.20;;;38.80;39.70;;;;;;5073765;28;20037;-63
2023/07/11 02:03:27;;;;;;;19.20;2.85;;;38.70;39.90;;;;;;5075396;28;20024;-64
2023/07/11 02:05:53;;;;;;;13.65;3.00;;;38.60;40.00;;;;;;5075392;28;20472;-63
2023/07/11 02:08:19;;;;;;;25.85;3.15;;;38.50;40.20;;;;;;5074036;28;20012;-65
2023/07/11 02:10:46;;;;;;;20.73;3.28;;;38.50;40.50;;;;;;5078002;28;20016;-61
2023/07/11 02:13:12;;;;;;;19.02;3.20;;;38.40;40.70;;;;;;5066270;28;20490;-62
2023/07/11 02:15:40;;;;;;;27.88;3.00;;;38.40;40.60;;;;;;5067955;28;20024;-66
2023/07/11 02:18:06;;;;;;;20.13;3.60;;;38.30;40.70;;;;;;5066587;28;20520;-63
2023/07/11 02:20:32;;;;;;;25.38;3.60;;;38.20;40.80;;;;;;5070927;28;20063;-62
2023/07/11 02:22:59;;;;;;;12.02;2.78;;;38.10;40.60;;;;;;5064988;28;20016;-65
2023/07/11 02:25:26;;;;;;;17.33;4.03;;;38.10;40.70;;;;;;5070072;28;20046;-65
2023/07/11 02:27:53;;;;;;;16.88;3.00;;;38.00;41.40;;;;;;5069287;28;20024;-63
2023/07/11 02:30:19;;;;;;;17.00;3.17;;;37.90;41.90;;;;;;5072785;28;20038;-62
2023/07/11 02:32:45;;;;;;;16.02;2.88;;;37.80;42.10;;;;;;5072186;28;20083;-64
2023/07/11 02:35:12;;;;;;;20.48;2.70;;;37.70;42.30;;;;;;5063582;28;20462;-65
2023/07/11 02:37:39;;;;;;;20.10;4.28;;;37.60;42.80;;;;;;5066210;28;20101;-64
2023/07/11 02:40:06;;;;;;;11.23;2.80;;;37.50;43.30;;;;;;5072016;28;20074;-63
2023/07/11 02:42:32;;;;;;;12.27;3.17;;;37.40;43.70;;;;;;5074179;28;20037;-64
2023/07/11 02:44:58;;;;;;;22.00;3.65;;;37.30;43.90;;;;;;5075861;28;20341;-66
2023/07/11 02:47:25;;;;;;;15.23;2.95;;;37.30;44.30;;;;;;5077431;28;20085;-63
2023/07/11 02:49:51;;;;;;;18.80;3.70;;;37.10;44.50;;;;;;5072793;28;20107;-65
2023/07/11 02:52:18;;;;;;;14.45;3.10;;;37.10;44.60;;;;;;5072366;28;20097;-67
2023/07/11 02:54:44;;;;;;;23.55;3.63;;;36.90;44.80;;;;;;5071644;28;20051;-66
2023/07/11 02:57:11;;;;;;;12.77;3.28;;;37.00;44.90;;;;;;5072949;28;20102;-66
2023/07/11 02:59:37;;;;;;;20.27;3.60;;;36.90;45.00;;;;;;5073858;28;20099;-64
2023/07/11 03:02:04;;;;;;;15.88;3.67;;;36.80;45.10;;;;;;5075596;28;20066;-64
2023/07/11 03:04:31;;;;;;;12.02;3.47;;;36.70;45.10;;;;;;5071629;28;20095;-65
2023/07/11 03:06:58;;;;;;;18.45;3.08;;;36.70;45.20;;;;;;5072412;28;20058;-65
2023/07/11 03:09:26;;;;;;;26.90;3.42;;;36.60;45.00;;;;;;5074345;28;20047;-66
2023/07/11 03:11:53;;;;;;;16.67;3.30;;;36.60;45.00;;;;;;5075710;28;20048;-65
2023/07/11 03:14:20;;;;;;;13.80;3.08;;;36.50;45.00;;;;;;5074480;28;20569;-63
2023/07/11 03:16:52;;;;;;;22.42;4.18;;;36.40;45.00;;;;;;5065571;28;20052;-64
2023/07/11 03:19:22;;;;;;;19.15;3.72;;;36.40;45.20;;;;;;5073106;28;20056;-66
2023/07/11 03:21:49;;;;;;;28.17;3.85;;;36.40;45.30;;;;;;5069930;28;20065;-64
2023/07/11 03:24:16;;;;;;;21.02;4.00;;;36.30;45.30;;;;;;5070824;28;20071;-64
2023/07/11 03:26:46;;;;;;;20.80;3.60;;;36.30;45.40;;;;;;5067662;28;20039;-62
2023/07/11 03:29:16;;;;;;;14.90;3.60;;;36.20;45.40;;;;;;5070439;28;20131;-65
2023/07/11 03:31:42;;;;;;;21.58;3.75;;;36.20;45.50;;;;;;5075238;28;20048;-67
2023/07/11 03:34:09;;;;;;;15.55;3.72;;;36.10;45.50;;;;;;5071063;28;20049;-65
2023/07/11 03:36:36;;;;;;;18.88;4.53;;;36.10;45.60;;;;;;5071493;28;20204;-65
2023/07/11 03:39:03;;;;;;;20.30;4.32;;;36.10;45.70;;;;;;5071071;28;20065;-63
2023/07/11 03:41:30;;;;;;;25.77;4.20;;;36.00;45.80;;;;;;5068338;28;20060;-67
2023/07/11 03:43:56;;;;;;;22.67;4.43;;;36.00;45.80;;;;;;5056889;28;20603;-65
2023/07/11 03:46:23;;;;;;;18.77;4.25;;;35.90;45.70;;;;;;5072974;28;20036;-65
2023/07/11 03:48:49;;;;;;;20.73;3.33;;;35.90;45.70;;;;;;5072554;28;20048;-65
2023/07/11 03:51:15;;;;;;;14.35;5.13;;;35.80;45.80;;;;;;5074124;28;20070;-63
2023/07/11 03:53:42;;;;;;;22.08;8.52;;;35.80;45.80;;;;;;5070748;28;20574;-63
2023/07/11 03:56:08;;;;;;;35.75;11.07;;;35.70;45.80;;;;;;5070247;28;20072;-71
2023/07/11 03:58:35;;;;;;;26.77;8.23;;;35.70;46.00;;;;;;5068189;28;20068;-64
2023/07/11 04:01:01;;;;;;;24.15;7.53;;;35.60;46.10;;;;;;5070613;28;20078;-65
2023/07/11 04:03:27;;;;;;;44.50;5.95;;;35.70;46.40;;;;;;5062988;28;20053;-63
2023/07/11 04:05:57;;;;;;;21.27;4.10;;;35.60;46.30;;;;;;5068364;28;20133;-65
2023/07/11 04:08:23;;;;;;;17.95;4.28;;;35.60;46.40;;;;;;5071419;28;20059;-64
2023/07/11 04:10:50;;;;;;;22.70;3.35;;;35.60;46.50;;;;;;5073133;28;20527;-64
2023/07/11 04:13:16;;;;;;;15.68;3.95;;;35.50;46.60;;;;;;5073133;28;20054;-64
2023/07/11 04:15:43;;;;;;;14.32;3.65;;;35.50;46.90;;;;;;5066786;28;20548;-65
2023/07/11 04:18:09;;;;;;;21.10;3.67;;;35.50;47.00;;;;;;5070461;28;20508;-64
2023/07/11 04:20:36;;;;;;;24.42;3.63;;;35.40;47.10;;;;;;5069416;28;20720;-64
2023/07/11 04:23:02;;;;;;;18.63;3.33;;;35.30;47.30;;;;;;5069568;28;20181;-64
2023/07/11 04:25:29;;;;;;;16.58;3.28;;;35.30;47.60;;;;;;5048091;28;20381;-63
2023/07/11 04:27:56;;;;;;;17.42;3.58;;;35.30;47.90;;;;;;5072066;28;20579;-64
2023/07/11 04:30:22;;;;;;;19.90;3.25;;;35.20;48.20;;;;;;5075667;28;20051;-65
2023/07/11 04:32:51;;;;;;;25.20;3.17;;;35.20;48.50;;;;;;5067925;28;20049;-67
2023/07/11 04:35:18;;;;;;;21.98;3.50;;;35.20;48.60;;;;;;5069122;28;20410;-67
2023/07/11 04:37:45;;;;;;;11.68;3.13;;;35.10;48.90;;;;;;5069632;28;20056;-66
2023/07/11 04:40:11;;;;;;;14.93;3.30;;;35.00;49.10;;;;;;5068821;28;20056;-68
2023/07/11 04:42:38;;;;;;;26.35;3.80;;;35.00;49.20;;;;;;5067996;28;20044;-64
2023/07/11 04:45:06;;;;;;;9.32;3.83;;;35.00;49.20;;;;;;5070200;28;20080;-67
2023/07/11 04:47:32;;;;;;;21.45;3.70;;;35.00;49.40;;;;;;5066821;28;20053;-67
2023/07/11 04:49:59;;;;;;;25.77;4.03;;;35.00;49.30;;;;;;5067814;28;20077;-67
2023/07/11 04:52:26;;;;;;;17.55;4.05;;;34.80;49.30;;;;;;5068805;28;20049;-69
2023/07/11 04:54:53;;;;;;;22.90;4.15;;;34.90;49.30;;;;;;5067130;28;20057;-68
2023/07/11 04:57:19;;;;;;;26.73;4.18;;;34.80;49.20;;;;;;5067763;28;20054;-68
2023/07/11 04:59:46;;;;;;;14.18;4.95;;;34.80;49.30;;;;;;5071625;28;20099;-68
2023/07/11 05:02:12;;;;;;;23.80;4.95;;;34.70;49.40;;;;;;5067817;28;20081;-65
2023/07/11 05:04:40;;;;;;;21.55;3.92;;;34.70;49.50;;;;;;5068740;28;20057;-67
2023/07/11 05:07:07;;;;;;;20.88;4.30;;;34.70;49.60;;;;;;5077185;28;20052;-64
2023/07/11 05:09:33;;;;;;;14.95;4.13;;;34.70;49.70;;;;;;5068195;28;20137;-65
2023/07/11 05:12:00;;;;;;;20.30;4.55;;;34.70;49.70;;;;;;5069879;28;20069;-65
2023/07/11 05:14:27;;;;;;;28.55;4.63;;;34.70;49.90;;;;;;5069115;28;20052;-65
2023/07/11 05:16:54;;;;;;;17.50;4.72;;;34.60;49.80;;;;;;5068501;28;20051;-65
2023/07/11 05:19:21;;;;;;;19.83;4.50;;;34.60;50.00;;;;;;5067821;28;20060;-65
2023/07/11 05:21:47;;;;;;;19.02;6.57;;;34.50;50.10;;;;;;5066317;28;20062;-64
2023/07/11 05:24:14;;;;;;;20.02;7.05;;;34.50;50.60;;;;;;5065902;28;20162;-67
2023/07/11 05:26:40;;;;;;;29.00;7.00;;;34.50;50.50;;;;;;5070384;28;20507;-67
2023/07/11 05:29:07;;;;;;;19.48;5.35;;;34.50;50.60;;;;;;5044315;28;20387;-65
2023/07/11 05:31:34;;;;;;;20.42;4.68;;;34.30;50.70;;;;;;5077137;28;20405;-64
2023/07/11 05:34:00;;;;;;;20.95;5.00;;;34.40;50.90;;;;;;5066997;28;20141;-67
2023/07/11 05:36:36;;;;;;;14.70;4.13;;;34.40;50.90;;;;;;5050630;28;20791;-70
2023/07/11 05:39:05;;;;;;;21.77;4.03;;;34.30;51.50;;;;;;5067087;28;20063;-67
2023/07/11 05:41:34;;;;;;;10.68;4.30;;;34.30;51.00;;;;;;5067152;28;20447;-69
2023/07/11 05:44:00;;;;;;;20.27;4.90;;;34.30;51.10;;;;;;5067470;28;20062;-67
2023/07/11 05:46:27;;;;;;;13.43;3.63;;;34.30;51.40;;;;;;5071097;28;20055;-68
2023/07/11 05:48:55;;;;;;;24.65;5.53;;;34.20;51.60;;;;;;5070758;28;20076;-66
2023/07/11 05:51:23;;;;;;;19.15;4.25;;;34.20;51.80;;;;;;5066236;28;20084;-64
2023/07/11 05:53:50;;;;;;;21.67;4.15;;;34.10;52.00;;;;;;5068420;28;20098;-63
2023/07/11 05:56:18;;;;;;;19.83;4.57;;;34.00;52.30;;;;;;5069249;28;20055;-67
2023/07/11 05:58:46;;;;;;;23.52;4.00;;;34.00;52.40;;;;;;5068842;28;20142;-67
2023/07/11 06:01:15;;;;;;;16.80;3.70;;;34.00;52.60;;;;;;5066620;28;21485;-65
2023/07/11 06:03:45;;;;;;;20.25;3.85;;;34.00;52.80;;;;;;5066326;28;20058;-66
2023/07/11 06:06:13;;;;;;;16.05;4.00;;;33.90;52.90;;;;;;5065754;28;20699;-66
2023/07/11 06:08:40;;;;;;;17.45;4.10;;;34.00;53.00;;;;;;5066311;28;20068;-65
2023/07/11 06:11:08;;;;;;;18.00;4.53;;;33.90;53.10;;;;;;5067831;28;20048;-69
2023/07/11 06:13:37;;;;;;;19.23;3.88;;;33.90;53.30;;;;;;5072064;28;20058;-65
2023/07/11 06:16:18;;;;;;;17.42;4.07;;;33.90;53.70;;;;;;5073269;28;20054;-67
2023/07/11 06:18:48;;;;;;;21.88;4.47;;;33.90;53.50;;;;;;5073934;28;20074;-67
2023/07/11 06:21:15;;;;;;;14.50;4.63;;;33.90;53.60;;;;;;5069618;28;20074;-65
2023/07/11 06:23:42;;;;;;;15.82;4.68;;;33.80;53.80;;;;;;5073019;28;20142;-65
2023/07/11 06:26:10;;;;;;;17.25;5.22;;;33.80;54.20;;;;;;5067433;28;20099;-66
2023/07/11 06:28:36;;;;;;;14.07;5.28;;;33.70;54.30;;;;;;5066767;28;20146;-65
2023/07/11 06:31:03;;;;;;;15.20;4.18;;;33.70;54.50;;;;;;5068849;28;20057;-64
2023/07/11 06:33:29;;;;;;;18.83;4.57;;;33.70;54.80;;;;;;5069100;28;20054;-64
2023/07/11 06:35:57;;;;;;;14.30;4.30;;;33.60;55.00;;;;;;5068799;28;20061;-65
2023/07/11 06:38:23;;;;;;;13.52;4.20;;;33.50;55.50;;;;;;5072336;28;20069;-65
2023/07/11 06:40:52;;;;;;;26.05;4.63;;;33.50;56.10;;;;;;5070103;28;20856;-65
2023/07/11 06:43:19;;;;;;;14.52;4.20;;;33.50;56.60;;;;;;5066411;28;20060;-65
2023/07/11 06:45:47;;;;;;;13.70;3.83;;;33.40;56.90;;;;;;5065854;28;20055;-63
2023/07/11 06:48:18;;;;;;;11.05;3.95;;;33.40;57.20;;;;;;5066293;28;20091;-66
2023/07/11 06:50:51;;;;;;;16.98;4.30;;;33.40;57.90;;;;;;5065360;28;20076;-67
2023/07/11 06:53:19;;;;;;;17.17;4.40;;;33.40;58.50;;;;;;5064569;28;20067;-66
2023/07/11 06:55:47;;;;;;;20.85;4.35;;;33.40;58.80;;;;;;5067751;28;20061;-65
2023/07/11 06:58:14;;;;;;;15.93;4.57;;;33.30;59.10;;;;;;5073056;28;20488;-63
2023/07/11 07:00:40;;;;;;;21.80;5.07;;;33.30;59.50;;;;;;5067865;28;20079;-65
2023/07/11 07:03:11;;;;;;;12.52;4.90;;;33.20;60.10;;;;;;5067915;28;20079;-65
2023/07/11 07:05:38;;;;;;;16.48;5.82;;;33.10;61.00;;;;;;5065669;28;20056;-65
2023/07/11 07:08:04;;;;;;;17.17;7.75;;;33.10;61.60;;;;;;5066786;28;20066;-65
2023/07/11 07:10:31;;;;;;;15.95;9.45;;;33.00;62.40;;;;;;5064386;28;20525;-65
2023/07/11 07:12:57;;;;;;;22.15;10.85;;;33.00;63.10;;;;;;5065445;28;20063;-65
2023/07/11 07:15:24;;;;;;;21.45;11.10;;;32.90;63.60;;;;;;5040161;28;20052;-65
2023/07/11 07:17:50;;;;;;;24.45;11.20;;;32.90;64.10;;;;;;5067309;28;20057;-64
2023/07/11 07:20:17;;;;;;;20.35;8.48;;;32.80;64.70;;;;;;5083252;28;20108;-64
2023/07/11 07:22:44;;;;;;;18.25;8.52;;;32.80;65.20;;;;;;5075667;28;20093;-66
2023/07/11 07:25:10;;;;;;;21.13;8.23;;;32.80;65.40;;;;;;5065105;28;20118;-65
2023/07/11 07:27:36;;;;;;;19.73;8.13;;;32.80;65.70;;;;;;5067213;28;20057;-64
2023/07/11 07:30:03;;;;;;;24.35;8.18;;;32.80;65.80;;;;;;5076131;28;20141;-65
2023/07/11 07:32:30;;;;;;;23.33;8.75;;;32.80;65.80;;;;;;5065685;28;20064;-65
2023/07/11 07:34:56;;;;;;;27.90;9.20;;;32.80;66.00;;;;;;5066211;28;20484;-65
2023/07/11 07:37:23;;;;;;;21.55;8.15;;;32.80;66.30;;;;;;5065319;28;20074;-64
2023/07/11 07:39:49;;;;;;;24.35;8.68;;;32.70;66.90;;;;;;5067070;28;20108;-65
2023/07/11 07:42:16;;;;;;;20.85;8.20;;;32.70;67.40;;;;;;5066607;28;20541;-65
2023/07/11 07:44:42;;;;;;;29.13;9.40;;;32.60;68.00;;;;;;5066074;28;20108;-65
2023/07/11 07:47:09;;;;;;;26.23;8.85;;;32.50;68.70;;;;;;5072064;28;20073;-66
2023/07/11 07:49:35;;;;;;;23.92;9.07;;;32.50;69.20;;;;;;5067222;28;20145;-66
2023/07/11 07:52:02;;;;;;;21.05;9.23;;;32.40;70.20;;;;;;5040385;28;20089;-65
2023/07/11 07:54:28;;;;;;;20.95;8.73;;;32.40;71.00;;;;;;5069939;28;20063;-66
2023/07/11 07:56:54;;;;;;;20.50;8.93;;;32.40;71.80;;;;;;5070394;28;20590;-66
2023/07/11 07:59:21;;;;;;;28.15;9.68;;;32.40;71.70;;;;;;5079985;28;20729;-65
2023/07/11 08:01:47;;;;;;;24.38;9.63;;;32.50;72.50;;;;;;5076047;28;20090;-65
2023/07/11 08:04:14;;;;;;;27.85;10.63;;;32.50;73.30;;;;;;5080381;28;20068;-65
2023/07/11 08:06:40;;;;;;;22.33;9.88;;;32.40;73.70;;;;;;5076388;28;20056;-64
2023/07/11 08:09:06;;;;;;;25.85;9.90;;;32.40;74.30;;;;;;5045396;28;20428;-66
2023/07/11 08:11:33;;;;;;;26.90;9.68;;;32.40;75.00;;;;;;5077405;28;20055;-65
2023/07/11 08:13:59;;;;;;;23.58;9.32;;;32.40;75.30;;;;;;5077573;28;20067;-63
2023/07/11 08:16:26;;;;;;;28.90;10.38;;;32.40;75.60;;;;;;5082944;28;20062;-65
2023/07/11 08:18:53;;;;;;;21.05;9.23;;;32.40;76.30;;;;;;5047038;28;20552;-65
2023/07/11 08:21:19;;;;;;;27.13;9.05;;;32.30;76.60;;;;;;5079118;28;20075;-65
2023/07/11 08:23:46;;;;;;;24.35;8.77;;;32.40;77.80;;;;;;5078937;28;20090;-66
2023/07/11 08:26:12;;;;;;;19.88;8.10;;;32.40;77.90;;;;;;5074807;28;20083;-66
2023/07/11 08:28:41;;;;;;;19.35;8.30;;;32.40;78.20;;;;;;5080004;28;20056;-65
2023/07/11 08:31:08;;;;;;;20.73;7.57;;;32.40;79.30;;;;;;5079695;28;20068;-64
2023/07/11 08:33:34;;;;;;;17.88;8.18;;;32.30;79.70;;;;;;5080401;28;20059;-62
2023/07/11 08:36:00;;;;;;;21.30;8.30;;;32.20;80.10;;;;;;5074158;28;20090;-66
2023/07/11 08:38:27;;;;;;;19.25;7.45;;;32.20;80.60;;;;;;5078725;28;20524;-63
2023/07/11 08:40:54;;;;;;;18.42;7.43;;;32.10;81.60;;;;;;5076152;28;20131;-66
2023/07/11 08:43:28;;;;;;;16.45;6.32;;;32.10;82.30;;;;;;5097020;22;20130;-65
2023/07/11 08:46:05;;;;;;;15.77;7.25;;;32.10;82.90;;;;;;5084122;28;20067;-65
2023/07/11 08:48:46;;;;;;;20.23;6.78;;;32.10;83.50;;;;;;5082351;28;20115;-65
2023/07/11 08:51:40;;;;;;;22.70;7.47;;;32.00;83.50;;;;;;5082737;28;20052;-65
2023/07/11 08:54:16;;;;;;;20.52;7.45;;;32.00;83.60;;;;;;5081722;28;20065;-64
2023/07/11 08:56:47;;;;;;;16.15;7.15;;;32.10;84.10;;;;;;5080098;28;20059;-64
2023/07/11 08:59:21;;;;;;;22.65;8.00;;;32.00;84.90;;;;;;5081324;28;20428;-65
2023/07/11 09:01:53;;;;;;;19.60;7.05;;;32.00;85.30;;;;;;5082097;28;20165;-64
2023/07/11 09:04:23;;;;;;;17.35;7.53;;;32.00;85.90;;;;;;5078993;28;20524;-65
2023/07/11 09:07:05;;;;;;;16.15;6.82;;;31.90;85.50;;;;;;5080515;28;20173;-65
2023/07/11 09:09:32;;;;;;;16.48;7.55;;;31.90;85.90;;;;;;5079641;28;20601;-64
2023/07/11 09:12:29;;;;;;;19.67;6.80;;;31.80;86.00;;;;;;5085570;28;20074;-65
2023/07/11 09:15:10;;;;;;;16.13;6.70;;;31.90;86.50;;;;;;5082398;28;20055;-65
2023/07/11 09:17:43;;;;;;;15.00;5.88;;;31.80;86.80;;;;;;5081455;28;20069;-65
2023/07/11 09:20:34;;;;;;;17.40;6.45;;;31.80;87.90;;;;;;5080902;28;20060;-65
2023/07/11 09:23:13;;;;;;;14.85;5.68;;;31.80;86.50;;;;;;5079264;28;20079;-64
2023/07/11 09:25:42;;;;;;;16.40;6.30;;;31.70;86.10;;;;;;5083218;28;20068;-63
2023/07/11 09:28:27;;;;;;;16.58;5.93;;;31.60;86.70;;;;;;5080117;28;20081;-67
2023/07/11 09:31:03;;;;;;;23.67;6.40;;;31.50;86.70;;;;;;5080535;28;20071;-65
2023/07/11 09:33:36;;;;;;;21.10;6.88;;;31.40;87.30;;;;;;5081679;28;20062;-64
2023/07/11 09:36:12;;;;;;;18.70;6.78;;;31.40;87.70;;;;;;5081531;28;20098;-64
2023/07/11 09:38:49;;;;;;;26.35;6.40;;;31.30;87.70;;;;;;5082602;28;20062;-64
2023/07/11 09:41:51;;;;;;;12.35;5.47;;;31.30;87.80;;;;;;5078354;28;20485;-64
2023/07/11 09:44:18;;;;;;;15.98;5.82;;;31.30;87.30;;;;;;5071552;28;20096;-64
2023/07/11 09:46:44;;;;;;;16.23;4.85;;;31.30;88.50;;;;;;5089633;28;20090;-64
2023/07/11 09:49:20;;;;;;;14.00;4.60;;;31.30;88.50;;;;;;5087285;28;20067;-64
2023/07/11 09:51:56;;;;;;;19.80;5.05;;;31.10;88.50;;;;;;5088892;28;20479;-64
2023/07/11 09:54:28;;;;;;;19.80;4.85;;;31.00;89.10;;;;;;5085979;28;20105;-64
2023/07/11 09:56:57;;;;;;;15.25;4.57;;;30.90;89.30;;;;;;5069550;28;20078;-64
2023/07/11 09:59:24;;;;;;;18.65;5.13;;;30.90;90.00;;;;;;5087779;28;20145;-65
2023/07/11 10:01:56;;;;;;;18.02;5.30;;;30.90;90.20;;;;;;5088552;28;20580;-65
2023/07/11 10:04:24;;;;;;;19.15;4.35;;;30.80;90.40;;;;;;5070250;28;20156;-64
2023/07/11 10:06:54;;;;;;;14.60;4.72;;;30.80;90.30;;;;;;5088306;28;20427;-65
2023/07/11 10:09:27;;;;;;;14.93;5.75;;;30.80;90.60;;;;;;5088518;28;20071;-65
2023/07/11 10:12:13;;;;;;;12.98;5.18;;;30.70;90.60;;;;;;5088495;28;20067;-64
2023/07/11 10:14:45;;;;;;;17.67;5.82;;;30.70;90.60;;;;;;5087285;28;20079;-65
2023/07/11 10:17:26;;;;;;;18.48;7.18;;;30.60;91.20;;;;;;5087952;28;20466;-66
2023/07/11 10:20:00;;;;;;;17.40;6.88;;;30.60;91.30;;;;;;5086337;28;20089;-64
2023/07/11 10:22:29;;;;;;;16.80;7.28;;;30.50;91.30;;;;;;5087461;28;20571;-66
2023/07/11 10:25:21;;;;;;;17.50;7.63;;;30.50;92.10;;;;;;5088017;28;20091;-64
2023/07/11 10:28:24;;;;;;;18.35;8.35;;;30.40;91.70;;;;;;5087467;28;20119;-65
2023/07/11 10:30:51;;;;;;;27.90;8.55;;;30.40;92.00;;;;;;5086933;28;20084;-65
2023/07/11 10:33:25;;;;;;;24.50;8.98;;;30.40;92.50;;;;;;5087921;28;20110;-63
2023/07/11 10:36:05;;;;;;;23.40;8.77;;;30.40;92.50;;;;;;5088209;28;20076;-64
2023/07/11 10:38:43;;;;;;;30.58;8.93;;;30.40;92.40;;;;;;5086522;28;20070;-65
2023/07/11 10:41:17;;;;;;;21.58;8.60;;;30.40;92.80;;;;;;5087947;28;20488;-64
2023/07/11 10:43:44;;;;;;;23.23;8.88;;;30.40;93.10;;;;;;5071489;28;20154;-64
2023/07/11 10:46:41;;;;;;;18.88;8.05;;;30.40;93.20;;;;;;5067788;28;20078;-64
2023/07/11 10:49:14;;;;;;;20.25;7.22;;;30.40;93.20;;;;;;5067711;28;20066;-66
2023/07/11 10:52:01;;;;;;;18.40;8.07;;;30.40;93.70;;;;;;5067750;28;20573;-65
2023/07/11 10:54:37;;;;;;;;;;;30.40;93.80;;;;;;5066140;28;20088;-65
2023/07/11 10:57:25;;;;;;;23.70;7.55;;;30.30;93.90;;;;;;5067257;28;20390;-64
2023/07/11 10:59:52;;;;;;;16.95;6.60;;;30.30;94.60;;;;;;5067483;28;20161;-66
2023/07/11 11:02:55;;;;;;;19.98;6.90;;;30.30;94.40;;;;;;5068068;28;20537;-65
2023/07/11 11:05:55;;;;;;;20.63;7.68;;;30.20;94.90;;;;;;5041797;28;20085;-63
2023/07/11 11:08:42;;;;;;;17.88;5.80;;;30.30;95.10;;;;;;5044594;28;20076;-64
2023/07/11 11:11:16;;;;;;;17.75;5.57;;;30.20;95.40;;;;;;5014829;28;20094;-66
2023/07/11 11:14:12;;;;;;;15.00;5.45;;;30.20;95.70;;;;;;5066998;28;20164;-67
2023/07/11 11:16:56;;;;;;;17.50;6.03;;;30.10;95.70;;;;;;5067273;28;20076;-64
2023/07/11 11:19:40;;;;;;;18.77;6.22;;;30.10;95.80;;;;;;5067917;28;20552;-64
2023/07/11 11:22:41;;;;;;;17.70;5.88;;;29.90;96.00;;;;;;5066894;28;20563;-66
2023/07/11 11:25:27;;;;;;;13.07;5.03;;;30.00;96.50;;;;;;5066912;28;20129;-64
2023/07/11 11:27:59;;;;;;;21.50;5.45;;;30.00;96.40;;;;;;5065559;28;20072;-64
2023/07/11 11:30:48;;;;;;;15.90;5.38;;;30.10;96.70;;;;;;5067322;28;20095;-66
2023/07/11 11:33:36;;;;;;;21.67;5.60;;;30.00;97.10;;;;;;5066984;28;20080;-67
2023/07/11 11:36:10;;;;;;;20.17;5.45;;;29.90;97.60;;;;;;5066600;28;20087;-64
2023/07/11 11:39:04;;;;;;;21.77;5.32;;;29.90;97.90;;;;;;5067415;28;20067;-64
2023/07/11 11:41:58;;;;;;;16.70;5.18;;;30.00;98.20;;;;;;5067352;28;20545;-64
2023/07/11 11:44:38;;;;;;;1703.30;108.22;;;30.00;98.40;;;;;;5066931;28;20081;-65
2023/07/11 11:47:05;;;;;;;25.83;5.78;;;30.10;98.70;;;;;;5067273;28;20066;-64
2023/07/11 11:49:32;;;;;;;13.05;4.82;;;30.10;99.00;;;;;;5067327;28;21272;-65
2023/07/11 11:51:59;;;;;;;15.68;4.40;;;30.10;99.10;;;;;;5065710;28;20071;-66
2023/07/11 11:54:26;;;;;;;17.85;4.82;;;30.10;99.30;;;;;;5064008;28;20076;-66
2023/07/11 11:56:58;;;;;;;18.73;4.88;;;30.10;99.20;;;;;;5066399;28;20074;-65
2023/07/11 11:59:29;;;;;;;15.85;4.40;;;30.10;99.00;;;;;;5064071;28;20442;-65
2023/07/11 12:01:55;;;;;;;14.73;4.13;;;30.10;99.20;;;;;;5065944;28;20173;-65
2023/07/11 12:04:32;;;;;;;15.55;3.85;;;30.10;99.10;;;;;;5065964;28;20129;-65
2023/07/11 12:07:10;;;;;;;;;;;30.10;99.00;;;;;;5066450;28;20546;-64
2023/07/11 12:09:39;;;;;;;15.75;3.92;;;30.10;98.90;;;;;;5067342;28;20060;-65
2023/07/11 12:12:19;;;;;;;17.35;4.60;;;30.00;99.00;;;;;;5067409;28;20607;-64
2023/07/11 12:14:51;;;;;;;14.77;4.53;;;30.00;99.00;;;;;;5066152;28;20070;-64
2023/07/11 12:17:33;;;;;;;14.13;4.40;;;30.00;99.00;;;;;;5067189;28;20153;-67
2023/07/11 12:20:10;;;;;;;15.90;4.45;;;29.90;99.00;;;;;;5066440;28;20067;-67
2023/07/11 12:22:40;;;;;;;17.83;4.75;;;29.90;99.10;;;;;;5065885;28;20083;-67
2023/07/11 12:25:06;;;;;;;11.70;4.13;;;29.90;99.10;;;;;;5065935;28;20077;-65
2023/07/11 12:27:33;;;;;;;15.50;4.80;;;29.90;99.20;;;;;;5066562;28;20074;-64
2023/07/11 12:30:23;;;;;;;17.15;4.95;;;29.90;99.20;;;;;;5066229;28;20076;-67
2023/07/11 12:32:50;;;;;;;16.17;4.95;;;29.90;99.20;;;;;;5066653;28;20077;-62
2023/07/11 12:35:20;;;;;;;15.80;4.53;;;29.90;99.10;;;;;;5066383;28;20491;-65
2023/07/11 12:37:46;;;;;;;24.15;4.82;;;29.90;99.20;;;;;;5065444;28;20066;-64
2023/07/11 12:40:18;;;;;;;18.08;4.93;;;29.90;99.20;;;;;;5070794;28;20568;-64
2023/07/11 12:43:01;;;;;;;13.32;4.38;;;29.90;99.10;;;;;;5073476;28;20209;-65
2023/07/11 12:45:37;;;;;;;15.05;3.97;;;30.00;99.20;;;;;;5065203;28;20388;-65
2023/07/11 12:48:09;;;;;;;19.52;4.78;;;30.00;99.20;;;;;;5084242;28;20439;-66
2023/07/11 12:50:49;;;;;;;22.75;4.22;;;30.00;99.20;;;;;;5080392;28;20071;-66
2023/07/11 12:53:16;;;;;;;20.77;4.80;;;30.00;99.30;;;;;;5082973;28;20113;-67